createdAt,value
2019-01-21T00:01:44.347Z,3.67
2019-01-21T00:04:13.756Z,2.37
2019-01-21T00:06:43.119Z,3.97
2019-01-21T00:09:12.485Z,2.27
2019-01-21T00:11:41.851Z,1.37
2019-01-21T00:14:11.215Z,1.70
2019-01-21T00:16:40.612Z,2.67
2019-01-21T00:19:09.980Z,2.07
2019-01-21T00:21:39.830Z,2.33
2019-01-21T00:24:09.295Z,1.17
2019-01-21T00:26:38.696Z,2.93
2019-01-21T00:29:08.087Z,2.23
2019-01-21T00:31:37.451Z,1.30
2019-01-21T00:34:06.808Z,2.50
2019-01-21T00:36:36.160Z,2.53
2019-01-21T00:39:07.623Z,2.50
2019-01-21T00:41:36.999Z,1.57
2019-01-21T00:44:06.396Z,1.63
2019-01-21T00:46:35.827Z,1.27
2019-01-21T00:49:05.616Z,1.35
2019-01-21T00:51:37.753Z,1.30
2019-01-21T00:54:07.134Z,1.60
2019-01-21T00:56:36.580Z,1.37
2019-01-21T00:59:06.047Z,5.70
2019-01-21T01:01:35.421Z,1.13
2019-01-21T01:04:04.823Z,1.17
2019-01-21T01:06:34.199Z,3.23
2019-01-21T01:09:05.125Z,0.95
2019-01-21T01:11:34.552Z,1.27
2019-01-21T01:14:06.088Z,1.80
2019-01-21T01:16:37.720Z,1.98
2019-01-21T01:19:07.095Z,1.90
2019-01-21T01:21:36.456Z,2.40
2019-01-21T01:24:07.959Z,2.33
2019-01-21T01:26:37.359Z,1.43
2019-01-21T01:29:06.739Z,2.77
2019-01-21T01:31:36.179Z,5.20
2019-01-21T01:34:08.616Z,1.53
2019-01-21T01:36:38.001Z,1.00
2019-01-21T01:39:08.547Z,1.43
2019-01-21T01:41:38.039Z,1.23
2019-01-21T01:44:07.492Z,1.17
2019-01-21T01:46:36.940Z,1.93
2019-01-21T01:49:06.355Z,0.72
2019-01-21T01:51:35.819Z,0.50
2019-01-21T01:54:05.395Z,6.58
2019-01-21T01:56:34.856Z,1.23
2019-01-21T01:59:04.512Z,1.27
2019-01-21T02:01:33.879Z,1.03
2019-01-21T02:04:03.353Z,2.17
2019-01-21T02:06:32.824Z,1.17
2019-01-21T02:09:02.276Z,4.93
2019-01-21T02:11:31.714Z,1.67
2019-01-21T02:14:01.196Z,1.12
2019-01-21T02:16:30.587Z,0.60
2019-01-21T02:19:00.067Z,1.33
2019-01-21T02:21:30.527Z,0.57
2019-01-21T02:24:06.138Z,1.00
2019-01-21T02:26:47.683Z,0.62
2019-01-21T02:29:37.653Z,2.40
2019-01-21T02:33:01.579Z,2.93
2019-01-21T02:35:59.079Z,1.40
2019-01-21T02:39:04.402Z,1.62
2019-01-21T02:41:44.471Z,2.87
2019-01-21T02:44:46.999Z,2.93
2019-01-21T02:47:41.223Z,1.57
2019-01-21T02:51:04.092Z,1.20
2019-01-21T02:54:14.739Z,0.97
2019-01-21T02:57:34.235Z,1.17
2019-01-21T03:00:53.525Z,0.63
2019-01-21T03:04:09.725Z,1.62
2019-01-21T03:07:01.944Z,1.65
2019-01-21T03:10:08.105Z,0.73
2019-01-21T03:13:16.423Z,4.17
2019-01-21T03:16:21.966Z,0.87
2019-01-21T03:19:41.939Z,1.27
2019-01-21T03:23:04.494Z,0.93
2019-01-21T03:26:17.658Z,1.12
2019-01-21T03:29:09.020Z,0.83
2019-01-21T03:31:55.519Z,0.65
2019-01-21T03:34:54.859Z,1.53
2019-01-21T03:38:18.312Z,1.77
2019-01-21T03:41:01.981Z,2.83
2019-01-21T03:44:33.815Z,1.60
2019-01-21T03:47:29.768Z,0.40
2019-01-21T03:50:10.840Z,0.80
2019-01-21T03:53:06.079Z,0.70
2019-01-21T03:55:35.844Z,0.70
2019-01-21T03:59:04.661Z,0.53
2019-01-21T04:02:00.040Z,1.90
2019-01-21T04:05:10.924Z,0.78
2019-01-21T04:08:17.494Z,0.83
2019-01-21T04:11:22.539Z,2.67
2019-01-21T04:14:08.716Z,1.90
2019-01-21T04:17:19.368Z,0.50
2019-01-21T04:20:37.419Z,3.00
2019-01-21T04:23:41.668Z,2.12
2019-01-21T04:26:41.063Z,1.37
2019-01-21T04:29:59.210Z,0.82
2019-01-21T04:33:05.288Z,0.57
2019-01-21T04:36:02.208Z,2.90
2019-01-21T04:39:07.674Z,0.90
2019-01-21T04:42:03.372Z,1.62
2019-01-21T04:45:12.246Z,0.87
2019-01-21T04:48:02.164Z,0.42
2019-01-21T04:51:02.400Z,0.93
2019-01-21T04:54:17.645Z,1.63
2019-01-21T04:57:26.220Z,0.65
2019-01-21T05:00:11.084Z,0.40
2019-01-21T05:03:35.257Z,1.17
2019-01-21T05:06:48.557Z,1.75
2019-01-21T05:10:03.669Z,0.60
2019-01-21T05:13:23.314Z,0.40
2019-01-21T05:16:26.247Z,1.42
2019-01-21T05:19:34.375Z,0.93
2019-01-21T05:22:40.184Z,1.93
2019-01-21T05:25:41.876Z,0.98
2019-01-21T05:28:37.068Z,2.17
2019-01-21T05:31:43.513Z,0.88
2019-01-21T05:34:48.752Z,1.80
2019-01-21T05:37:46.260Z,0.47
2019-01-21T05:40:39.335Z,0.80
2019-01-21T05:44:03.010Z,1.15
2019-01-21T05:47:08.288Z,1.42
2019-01-21T05:50:04.005Z,9.65
2019-01-21T05:53:32.206Z,4.47
2019-01-21T05:56:28.920Z,1.10
2019-01-21T05:59:29.397Z,1.25
2019-01-21T06:02:58.155Z,0.47
2019-01-21T06:06:23.772Z,1.45
2019-01-21T06:09:34.536Z,0.78
2019-01-21T06:12:43.719Z,2.62
2019-01-21T06:15:30.919Z,2.25
2019-01-21T06:18:11.532Z,2.67
2019-01-21T06:21:20.744Z,1.92
2019-01-21T06:24:18.726Z,1.42
2019-01-21T06:27:31.081Z,4.33
2019-01-21T06:33:35.872Z,2.35
2019-01-21T06:36:40.328Z,4.62
2019-01-21T06:39:59.255Z,4.30
2019-01-21T06:43:21.811Z,1.85
2019-01-21T06:46:17.993Z,3.00
2019-01-21T06:49:37.583Z,1.60
2019-01-21T06:52:34.917Z,2.40
2019-01-21T06:55:53.264Z,2.95
2019-01-21T06:59:34.216Z,2.10
2019-01-21T07:02:24.543Z,2.00
2019-01-21T07:05:23.565Z,2.35
2019-01-21T07:08:30.151Z,2.12
2019-01-21T07:11:25.231Z,4.92
2019-01-21T07:14:27.094Z,2.77
2019-01-21T07:17:18.363Z,2.70
2019-01-21T07:20:11.331Z,2.15
2019-01-21T07:26:06.035Z,3.65
2019-01-21T07:29:11.172Z,1.72
2019-01-21T07:32:12.295Z,3.62
2019-01-21T07:35:24.929Z,2.20
2019-01-21T07:38:07.543Z,2.83
2019-01-21T07:41:04.340Z,2.47
2019-01-21T07:43:46.315Z,4.72
2019-01-21T07:46:55.442Z,1.65
2019-01-21T07:50:01.388Z,6.87
2019-01-21T07:53:17.987Z,5.53
2019-01-21T07:56:30.607Z,9.88
2019-01-21T07:59:37.159Z,11.85
2019-01-21T08:02:20.119Z,5.78
2019-01-21T08:05:02.215Z,4.00
2019-01-21T08:07:39.792Z,4.85
2019-01-21T08:10:45.976Z,2.80
2019-01-21T08:13:39.485Z,4.85
2019-01-21T08:16:51.501Z,5.80
2019-01-21T08:20:06.829Z,7.00
2019-01-21T08:23:35.499Z,4.28
2019-01-21T08:26:32.670Z,3.95
2019-01-21T08:29:45.683Z,5.45
2019-01-21T08:32:42.919Z,3.77
2019-01-21T08:36:11.425Z,3.42
2019-01-21T08:39:18.804Z,2.50
2019-01-21T08:42:23.606Z,4.17
2019-01-21T08:45:45.319Z,2.08
2019-01-21T08:48:43.435Z,4.62
2019-01-21T08:51:39.650Z,4.17
2019-01-21T08:54:37.900Z,5.28
2019-01-21T08:57:39.162Z,3.75
2019-01-21T09:00:45.579Z,4.65
2019-01-21T09:04:01.997Z,2.25
2019-01-21T09:07:16.369Z,3.15
2019-01-21T09:10:00.189Z,2.85
2019-01-21T09:13:20.127Z,2.58
2019-01-21T09:16:39.623Z,3.57
2019-01-21T09:19:40.760Z,2.80
2019-01-21T09:22:36.279Z,4.55
2019-01-21T09:25:20.964Z,2.47
2019-01-21T09:28:34.764Z,3.27
2019-01-21T09:31:19.201Z,2.62
2019-01-21T09:34:50.968Z,4.08
2019-01-21T09:38:07.479Z,3.50
2019-01-21T09:41:18.019Z,3.63
2019-01-21T09:44:06.136Z,4.00
2019-01-21T09:46:49.965Z,5.60
2019-01-21T09:49:17.660Z,4.93
2019-01-21T09:52:06.251Z,4.77
2019-01-21T09:54:40.563Z,3.80
2019-01-21T09:57:24.411Z,5.03
2019-01-21T09:59:59.989Z,7.17
2019-01-21T10:02:42.298Z,5.63
2019-01-21T10:05:16.630Z,8.07
2019-01-21T10:08:22.687Z,7.40
2019-01-21T10:11:25.741Z,4.33
2019-01-21T10:14:12.126Z,4.17
2019-01-21T10:17:34.469Z,7.07
2019-01-21T10:21:02.601Z,4.20
2019-01-21T10:23:58.283Z,5.97
2019-01-21T10:27:07.584Z,7.77
2019-01-21T10:30:27.095Z,11.57
2019-01-21T10:33:16.936Z,10.10
2019-01-21T10:36:29.243Z,4.77
2019-01-21T10:39:51.900Z,10.10
2019-01-21T10:42:48.827Z,8.30
2019-01-21T10:46:02.511Z,11.13
2019-01-21T10:48:51.061Z,7.17
2019-01-21T10:52:01.088Z,7.83
2019-01-21T10:54:58.264Z,5.00
2019-01-21T10:57:53.036Z,4.53
2019-01-21T11:01:05.305Z,3.17
2019-01-21T11:04:12.551Z,5.83
2019-01-21T11:07:32.213Z,5.43
2019-01-21T11:10:15.723Z,6.00
2019-01-21T11:13:16.690Z,4.43
2019-01-21T11:16:03.111Z,4.73
2019-01-21T11:19:34.909Z,2.70
2019-01-21T11:22:11.097Z,3.90
2019-01-21T11:25:10.932Z,3.30
2019-01-21T11:27:54.431Z,4.30
2019-01-21T11:30:55.775Z,3.17
2019-01-21T11:34:18.216Z,4.20
2019-01-21T11:37:24.488Z,3.23
2019-01-21T11:40:46.764Z,2.53
2019-01-21T11:44:09.424Z,3.93
2019-01-21T11:46:59.008Z,4.23
2019-01-21T11:50:24.643Z,3.13
2019-01-21T11:53:47.152Z,2.10
2019-01-21T11:56:31.851Z,2.30
2019-01-21T11:59:12.803Z,3.67
2019-01-21T12:02:29.184Z,3.87
2019-01-21T12:05:17.730Z,3.20
2019-01-21T12:08:24.112Z,2.87
2019-01-21T12:11:45.471Z,3.40
2019-01-21T12:15:01.412Z,2.13
2019-01-21T12:18:10.853Z,4.33
2019-01-21T12:20:53.667Z,5.70
2019-01-21T12:24:01.188Z,3.37
2019-01-21T12:27:21.011Z,4.03
2019-01-21T12:30:45.764Z,3.23
2019-01-21T12:33:46.515Z,2.80
2019-01-21T12:36:27.268Z,2.50
2019-01-21T12:39:55.871Z,4.83
2019-01-21T12:42:56.212Z,5.50
2019-01-21T12:46:05.730Z,3.10
2019-01-21T12:49:01.605Z,3.10
2019-01-21T12:51:38.248Z,2.43
2019-01-21T12:54:32.256Z,2.80
2019-01-21T12:57:58.076Z,6.90
2019-01-21T13:00:53.060Z,4.73
2019-01-21T13:04:09.975Z,3.20
2019-01-21T13:07:44.795Z,1.83
2019-01-21T13:10:51.733Z,2.00
2019-01-21T13:13:52.396Z,3.33
2019-01-21T13:17:18.176Z,6.17
2019-01-21T13:20:16.633Z,4.90
2019-01-21T13:23:15.167Z,3.70
2019-01-21T13:26:06.427Z,4.07
2019-01-21T13:29:21.783Z,8.03
2019-01-21T13:32:32.047Z,3.03
2019-01-21T13:35:42.339Z,4.27
2019-01-21T13:38:51.884Z,5.63
2019-01-21T13:42:23.616Z,3.07
2019-01-21T13:45:29.741Z,4.80
2019-01-21T13:48:34.114Z,3.60
2019-01-21T13:51:58.952Z,4.60
2019-01-21T13:55:11.339Z,6.37
2019-01-21T13:58:18.878Z,4.23
2019-01-21T14:00:58.672Z,3.30
2019-01-21T14:04:21.477Z,7.20
2019-01-21T14:07:32.319Z,4.60
2019-01-21T14:10:35.011Z,5.27
2019-01-21T14:14:03.027Z,4.47
2019-01-21T14:16:59.133Z,2.73
2019-01-21T14:19:59.947Z,6.30
2019-01-21T14:23:06.560Z,8.97
2019-01-21T14:26:07.461Z,6.07
2019-01-21T14:29:36.324Z,5.73
2019-01-21T14:32:23.191Z,6.37
2019-01-21T14:35:37.331Z,3.00
2019-01-21T14:38:51.960Z,4.33
2019-01-21T14:42:00.887Z,6.73
2019-01-21T14:45:14.720Z,3.83
2019-01-21T14:48:20.472Z,4.53
2019-01-21T14:51:26.552Z,8.33
2019-01-21T14:54:28.478Z,7.00
2019-01-21T14:57:19.216Z,4.73
2019-01-21T15:00:30.073Z,6.80
2019-01-21T15:03:29.699Z,5.50
2019-01-21T15:06:25.720Z,4.30
2019-01-21T15:09:08.790Z,4.05
2019-01-21T15:12:11.819Z,7.70
2019-01-21T15:15:17.393Z,3.27
2019-01-21T15:18:14.590Z,7.83
2019-01-21T15:21:15.509Z,5.22
2019-01-21T15:24:11.992Z,5.80
2019-01-21T15:27:40.809Z,6.20
2019-01-21T15:30:41.871Z,6.97
2019-01-21T15:33:53.926Z,5.90
2019-01-21T15:36:48.797Z,6.28
2019-01-21T15:39:48.867Z,8.63
2019-01-21T15:43:07.738Z,7.65
2019-01-21T15:46:13.209Z,4.80
2019-01-21T15:49:26.762Z,9.23
2019-01-21T15:52:46.660Z,6.13
2019-01-21T15:55:36.091Z,11.80
2019-01-21T15:58:44.816Z,8.90
2019-01-21T16:01:47.796Z,6.30
2019-01-21T16:04:39.663Z,8.80
2019-01-21T16:07:49.371Z,9.53
2019-01-21T16:11:01.591Z,8.43
2019-01-21T16:13:37.236Z,12.95
2019-01-21T16:16:50.468Z,12.53
2019-01-21T16:19:36.077Z,12.40
2019-01-21T16:22:41.268Z,7.33
2019-01-21T16:25:28.401Z,6.00
2019-01-21T16:28:47.953Z,9.93
2019-01-21T16:32:16.867Z,6.58
2019-01-21T16:35:11.433Z,7.35
2019-01-21T16:37:58.887Z,9.83
2019-01-21T16:40:52.128Z,14.73
2019-01-21T16:43:21.531Z,8.10
2019-01-21T16:45:50.921Z,12.70
2019-01-21T16:48:20.392Z,8.57
2019-01-21T16:50:49.843Z,9.85
2019-01-21T16:53:19.288Z,9.98
2019-01-21T16:55:48.681Z,10.13
2019-01-21T16:58:20.572Z,10.60
2019-01-21T17:00:51.155Z,14.55
2019-01-21T17:03:22.597Z,12.20
2019-01-21T17:05:51.701Z,13.10
2019-01-21T17:08:21.159Z,11.85
2019-01-21T17:10:50.616Z,9.93
2019-01-21T17:13:20.004Z,12.25
2019-01-21T17:15:49.465Z,11.88
2019-01-21T17:18:20.583Z,17.52
2019-01-21T17:20:50.367Z,13.60
2019-01-21T17:23:19.747Z,16.20
2019-01-21T17:25:49.147Z,14.87
2019-01-21T17:28:18.544Z,16.62
2019-01-21T17:30:50.534Z,17.60
2019-01-21T17:33:19.915Z,13.98
2019-01-21T17:35:51.311Z,13.30
2019-01-21T17:38:20.733Z,19.82
2019-01-21T17:40:50.976Z,13.53
2019-01-21T17:43:20.346Z,16.87
2019-01-21T17:45:49.748Z,13.98
2019-01-21T17:48:20.864Z,12.75
2019-01-21T17:50:50.231Z,14.40
2019-01-21T17:53:19.603Z,15.00
2019-01-21T17:55:49.059Z,16.25
2019-01-21T17:58:18.443Z,12.78
2019-01-21T18:00:47.803Z,14.25
2019-01-21T18:03:17.188Z,16.95
2019-01-21T18:05:46.568Z,18.73
2019-01-21T18:08:15.971Z,15.70
2019-01-21T18:10:45.424Z,14.53
2019-01-21T18:13:14.881Z,15.20
2019-01-21T18:15:44.307Z,10.93
2019-01-21T18:18:13.692Z,21.35
2019-01-21T18:20:43.137Z,28.17
2019-01-21T18:23:12.588Z,25.52
2019-01-21T18:25:41.976Z,25.02
2019-01-21T18:28:11.351Z,28.02
2019-01-21T18:30:40.732Z,32.98
2019-01-21T18:33:10.123Z,26.27
2019-01-21T18:35:39.500Z,20.68
2019-01-21T18:38:08.885Z,27.25
2019-01-21T18:40:38.347Z,23.42
2019-01-21T18:43:07.744Z,19.92
2019-01-21T18:45:37.175Z,18.27
2019-01-21T18:48:06.544Z,20.08
2019-01-21T18:50:35.911Z,20.45
2019-01-21T18:53:07.811Z,18.20
2019-01-21T18:55:37.180Z,18.60
2019-01-21T18:58:09.603Z,17.67
2019-01-21T19:00:39.004Z,22.00
2019-01-21T19:03:08.455Z,21.07
2019-01-21T19:05:37.864Z,14.87
2019-01-21T19:08:07.295Z,20.17
2019-01-21T19:10:36.679Z,19.67
2019-01-21T19:13:07.387Z,14.83
2019-01-21T19:15:36.785Z,15.08
2019-01-21T19:18:08.897Z,17.70
2019-01-21T19:20:38.376Z,17.07
2019-01-21T19:23:07.752Z,21.95
2019-01-21T19:25:37.151Z,18.60
2019-01-21T19:28:06.557Z,19.60
2019-01-21T19:30:35.964Z,18.07
2019-01-21T19:33:05.424Z,18.85
2019-01-21T19:35:37.063Z,13.25
2019-01-21T19:38:09.163Z,25.97
2019-01-21T19:40:38.687Z,18.12
2019-01-21T19:43:08.064Z,21.65
2019-01-21T19:45:37.442Z,20.60
2019-01-21T19:48:07.024Z,17.62
2019-01-21T19:50:36.410Z,24.75
2019-01-21T19:53:07.911Z,22.58
2019-01-21T19:55:39.539Z,20.00
2019-01-21T19:58:11.540Z,19.15
2019-01-21T20:00:40.912Z,27.27
2019-01-21T20:03:13.241Z,18.50
2019-01-21T20:05:42.654Z,20.23
2019-01-21T20:08:12.024Z,14.65
2019-01-21T20:10:41.404Z,22.30
2019-01-21T20:13:10.781Z,15.50
2019-01-21T20:15:40.152Z,21.57
2019-01-21T20:18:09.548Z,19.60
2019-01-21T20:20:42.283Z,24.77
2019-01-21T20:23:11.766Z,18.15
2019-01-21T20:25:41.159Z,19.82
2019-01-21T20:28:12.933Z,20.03
2019-01-21T20:30:42.319Z,20.23
2019-01-21T20:33:11.743Z,17.37
2019-01-21T20:35:41.167Z,16.62
2019-01-21T20:38:10.551Z,23.57
2019-01-21T20:40:41.952Z,13.53
2019-01-21T20:43:11.319Z,20.37
2019-01-21T20:45:43.056Z,16.77
2019-01-21T20:48:12.526Z,16.90
2019-01-21T20:50:42.004Z,20.97
2019-01-21T20:53:11.379Z,19.85
2019-01-21T20:55:40.760Z,17.00
2019-01-21T20:58:10.153Z,17.43
2019-01-21T21:00:39.591Z,20.03
2019-01-21T21:03:08.986Z,19.80
2019-01-21T21:05:38.359Z,17.93
2019-01-21T21:08:07.772Z,18.40
2019-01-21T21:10:37.131Z,20.00
2019-01-21T21:13:06.524Z,16.27
2019-01-21T21:15:35.926Z,22.13
2019-01-21T21:18:05.880Z,19.00
2019-01-21T21:20:36.310Z,18.23
2019-01-21T21:23:08.046Z,17.80
2019-01-21T21:25:37.424Z,15.23
2019-01-21T21:28:06.876Z,16.70
2019-01-21T21:30:36.332Z,15.23
2019-01-21T21:33:06.081Z,16.70
2019-01-21T21:35:41.428Z,16.83
2019-01-21T21:38:10.910Z,16.83
2019-01-21T21:40:42.651Z,14.23
2019-01-21T21:43:12.100Z,17.73
2019-01-21T21:45:41.583Z,16.07
2019-01-21T21:48:11.035Z,15.87
2019-01-21T21:50:40.483Z,17.03
2019-01-21T21:53:09.932Z,16.33
2019-01-21T21:55:39.385Z,22.17
2019-01-21T21:58:09.230Z,13.97
2019-01-21T22:00:38.787Z,15.57
2019-01-21T22:03:08.243Z,19.03
2019-01-21T22:05:37.700Z,14.70
2019-01-21T22:08:07.151Z,17.27
2019-01-21T22:10:36.794Z,13.57
2019-01-21T22:13:06.484Z,15.00
2019-01-21T22:15:35.928Z,14.50
2019-01-21T22:18:05.516Z,17.37
2019-01-21T22:20:38.179Z,15.77
2019-01-21T22:23:07.627Z,15.97
2019-01-21T22:25:37.067Z,12.97
2019-01-21T22:28:06.522Z,14.20
2019-01-21T22:30:35.974Z,13.60
2019-01-21T22:33:05.459Z,17.27
2019-01-21T22:35:34.931Z,18.77
2019-01-21T22:38:04.420Z,15.80
2019-01-21T22:40:33.915Z,12.20
2019-01-21T22:43:05.883Z,16.93
2019-01-21T22:45:36.808Z,15.27
2019-01-21T22:48:06.256Z,12.97
2019-01-21T22:50:35.734Z,16.70
2019-01-21T22:53:05.579Z,13.10
2019-01-21T22:55:35.450Z,14.03
2019-01-21T22:58:04.917Z,13.13
2019-01-21T23:01:12.203Z,13.70
2019-01-21T23:03:41.663Z,14.20
2019-01-21T23:06:11.163Z,16.63
2019-01-21T23:08:40.620Z,17.43
2019-01-21T23:11:10.070Z,12.97
2019-01-21T23:13:43.576Z,14.37
2019-01-21T23:16:13.233Z,16.77
2019-01-21T23:18:42.705Z,14.70
2019-01-21T23:21:12.142Z,11.10
2019-01-21T23:23:41.604Z,15.67
2019-01-21T23:26:11.060Z,14.50
2019-01-21T23:28:40.525Z,16.33
2019-01-21T23:31:09.974Z,13.30
2019-01-21T23:33:39.408Z,19.17
2019-01-21T23:36:08.856Z,11.20
2019-01-21T23:38:38.360Z,15.00
2019-01-21T23:41:11.633Z,11.90
2019-01-21T23:43:42.576Z,12.27
2019-01-21T23:46:12.064Z,14.13
2019-01-21T23:48:44.016Z,13.77
2019-01-21T23:51:18.153Z,12.17
2019-01-21T23:53:48.024Z,13.93
2019-01-21T23:56:17.760Z,11.80
2019-01-21T23:58:47.218Z,9.70
